Aérodrome :
LOGIN :

S'inscrire | Disclaimer

   EN    FR    IT 

 










Légende :    VFR   VFR Marginal   IFR   IFR Intensif   IFR Très Intensif
Visi : 
Plafond : 
>= 8 km
>= 3000ft
5 à 8 km
1000 à 3000 ft
1500m à 5 km
500 à 1000 ft
800 à 1500m
200 à 500 ft
< 800m
< 200 ft
Symboles :   Orages  Brouillard  Fortes neiges  Fortes précipitations  Vent > 20 kt
SIGMETs :   Divers  Orages  Givrage  Turbulence  Onde Orograph.  Cendres Volcan.







- Altitude de l'aérodrome : 56 ft
- Code IATA : ILY
- Voir les cartes d'approche


EGPI - Islay

DERNIER METAR :
  • 200920Z AUTO 14012KT 110V170 3800 -RA FEW005/// BKN012/// 10/10 Q1016

METARs EXPIRÉS :
  • 200850Z AUTO 14014KT 100V170 7000 BKN013/// BKN021/// 11/10 Q1015 RERA
  • 200820Z AUTO 14016KT 100V160 5000 RA SCT012/// BKN018/// 10/10 Q1015
  • 200750Z AUTO 14015KT 3300 -RA SCT014/// SCT021/// BKN030/// 10/10 Q1015
  • 200720Z AUTO 14014KT 2100 -RA BKN012/// 10/10 Q1016
  • 200650Z AUTO 14015KT 2600 -RA FEW004/// SCT012/// BKN018/// 10/10 Q1015

TAF TAF EGPI
Valide du 20 à 09h jusqu'au 20 à 18h UTC


200802Z 2009/2018 14014KT 9999 SCT020
TEMPO 2009/2018 7000 -RA BKN012
PROB40
TEMPO 2009/2018 15017G27KT 3000 RADZ BKN007
Pas de NOTAMs connus pour ce terrain.
1 SIGMET publié pour la FIR Scottish (EGPX) :
 
Onde orographique forte
EGPX SIGMET 02 VALID 200600/201000 EGRR
EGPX SCOTTISH FIR SEV MTW FCST WI N5535 W00531 - N5735 W00621 - N5831 W00456 - N5931 W00247 - N5732 W00055 - N5559 W00325 - N5535 W00531 FL030/280 STNR WKN=



MET'MAP, la Météo Aéronautique d'un coup d'oeil ! - Copyright ORBIFLY Décembre 2007 - Disclaimer

ORBIFLY MET'MAP TEAM :

Programmation & Développement : Alexandra Zaïnal
Conception & Développement : Baudouin d'Aumeries
Co-Programmation & Développement : Marc-Olivier Méhu
Soutien technique & logistique : Manuel Goepfert

Contact : metmap@orbifly.com




SOURCES & CREDITS :

   NOAA